Time;durP1;ratioP1;P1;durP2;ratioP2;P2;SDS_P1;SDS_P2;PMS_P1;PMS_P2;Temp;Humidity;BMP_temperature;BMP_pressure;BME280_temperature;BME280_humidity;BME280_pressure;Samples;Min_cycle;Max_cycle;Signal;HPM_P1;HPM_P2
2021/10/28 00:15:45;;;;;;;19.97;17.97;;;12.30;45.70;;;;;;10511286;28;20219;-68
2021/10/28 00:20:53;;;;;;;27.70;21.60;;;12.30;45.70;;;;;;10501968;28;20216;-70
2021/10/28 00:25:57;;;;;;;34.80;22.20;;;12.30;45.80;;;;;;10495727;28;20804;-69
2021/10/28 00:31:00;;;;;;;22.20;19.90;;;12.40;45.70;;;;;;10500240;28;20228;-69
2021/10/28 00:36:08;;;;;;;26.17;22.47;;;12.30;45.60;;;;;;10504544;28;20247;-69
2021/10/28 00:41:11;;;;;;;26.53;21.33;;;12.30;46.10;;;;;;10511903;28;20587;-68
2021/10/28 00:46:16;;;;;;;23.27;20.77;;;12.30;45.80;;;;;;10516806;28;20232;-68
2021/10/28 00:51:24;;;;;;;23.93;21.00;;;12.30;45.80;;;;;;10521260;28;20220;-69
2021/10/28 00:56:29;;;;;;;30.10;21.77;;;12.30;46.00;;;;;;10514838;28;20614;-68
2021/10/28 01:01:33;;;;;;;25.90;21.20;;;12.30;45.90;;;;;;10522378;28;20220;-69
2021/10/28 01:06:39;;;;;;;26.77;22.43;;;12.30;45.70;;;;;;10517495;28;20277;-69
2021/10/28 01:11:42;;;;;;;24.53;22.03;;;12.30;45.90;;;;;;10523747;28;20635;-68
2021/10/28 01:16:46;;;;;;;23.90;21.40;;;12.30;45.70;;;;;;10515536;28;20236;-69
2021/10/28 01:21:52;;;;;;;25.20;22.57;;;12.30;45.80;;;;;;10512491;28;20348;-68
2021/10/28 01:27:02;;;;;;;24.63;22.13;;;12.30;46.00;;;;;;10518179;28;20242;-69
2021/10/28 01:32:08;;;;;;;24.67;22.13;;;12.30;46.20;;;;;;10516389;28;20219;-69
2021/10/28 01:37:13;;;;;;;26.50;23.07;;;12.30;45.80;;;;;;10518887;28;20230;-69
2021/10/28 01:42:17;;;;;;;24.63;22.03;;;12.30;46.00;;;;;;10511837;28;20593;-69
2021/10/28 01:47:20;;;;;;;24.00;21.50;;;12.30;45.80;;;;;;10517222;28;20585;-69
2021/10/28 01:52:25;;;;;;;25.90;23.10;;;12.30;45.70;;;;;;10515756;28;20227;-69
2021/10/28 01:57:28;;;;;;;22.97;20.60;;;12.30;45.90;;;;;;10511077;28;20230;-69
2021/10/28 02:02:32;;;;;;;24.90;22.40;;;12.30;45.80;;;;;;10523145;28;20227;-69
2021/10/28 02:07:37;;;;;;;24.07;21.57;;;12.30;45.90;;;;;;10515868;28;20721;-68
2021/10/28 02:12:41;;;;;;;24.73;22.20;;;12.30;46.10;;;;;;10515248;28;20232;-69
2021/10/28 02:17:46;;;;;;;25.40;22.73;;;12.30;46.00;;;;;;10514206;28;20224;-69
2021/10/28 02:22:50;;;;;;;24.63;22.03;;;12.30;45.90;;;;;;10517184;28;20245;-69
2021/10/28 02:27:53;;;;;;;25.27;22.20;;;12.30;45.90;;;;;;10517000;28;20231;-69
2021/10/28 02:32:57;;;;;;;25.43;22.43;;;12.30;45.80;;;;;;10523071;28;20238;-69
2021/10/28 02:38:01;;;;;;;25.90;23.20;;;12.30;45.70;;;;;;10523234;28;20590;-69
2021/10/28 02:43:04;;;;;;;25.40;22.53;;;12.30;45.80;;;;;;10520464;28;20220;-69
2021/10/28 02:48:08;;;;;;;23.97;21.47;;;12.30;45.70;;;;;;10523366;28;20227;-68
2021/10/28 02:53:12;;;;;;;27.70;23.30;;;12.30;45.70;;;;;;10519008;28;20238;-69
2021/10/28 02:58:15;;;;;;;24.87;22.27;;;12.20;45.60;;;;;;10523088;28;20235;-69
2021/10/28 03:03:18;;;;;;;31.70;24.20;;;12.20;46.30;;;;;;10524351;28;20227;-69
2021/10/28 03:08:23;;;;;;;24.17;21.60;;;12.20;45.50;;;;;;10512440;28;20695;-69
2021/10/28 03:13:28;;;;;;;27.67;23.57;;;12.10;45.70;;;;;;10518894;28;20224;-69
2021/10/28 03:29:15;;;;;;;27.00;24.13;;;12.10;45.90;;;;;;10518890;28;20593;-68
2021/10/28 03:34:19;;;;;;;25.23;21.80;;;12.10;45.90;;;;;;10515346;28;20763;-69
2021/10/28 03:39:38;;;;;;;25.10;22.40;;;12.10;45.90;;;;;;10513449;28;20236;-68
2021/10/28 04:06:28;;;;;;;28.63;22.83;;;12.10;45.80;;;;;;10512460;28;20224;-69
2021/10/28 04:17:13;;;;;;;26.53;23.50;;;12.00;45.90;;;;;;10514637;28;20249;-68
2021/10/28 04:32:59;;;;;;;29.43;24.53;;;12.00;46.00;;;;;;10523078;28;20226;-68
2021/10/28 04:38:02;;;;;;;24.57;21.17;;;12.00;45.90;;;;;;10520937;27;20258;-69
2021/10/28 04:43:07;;;;;;;27.53;23.77;;;12.00;45.90;;;;;;10520315;28;20219;-69
2021/10/28 04:48:12;;;;;;;27.17;24.23;;;12.00;46.10;;;;;;10516185;28;20227;-69
2021/10/28 04:53:15;;;;;;;25.90;23.10;;;12.10;46.10;;;;;;10517054;28;20220;-69
2021/10/28 04:58:19;;;;;;;29.00;25.13;;;12.10;46.00;;;;;;10511480;28;20246;-69
2021/10/28 05:03:22;;;;;;;29.83;25.47;;;12.10;46.20;;;;;;10519115;28;20265;-69
2021/10/28 05:08:26;;;;;;;25.90;21.47;;;12.00;45.80;;;;;;10515581;28;20315;-70
2021/10/28 05:13:30;;;;;;;28.73;24.63;;;12.10;46.40;;;;;;10508755;28;20228;-69
2021/10/28 05:18:40;;;;;;;29.10;24.77;;;12.10;47.50;;;;;;10505693;28;20228;-68
2021/10/28 05:23:43;;;;;;;31.60;25.77;;;12.20;46.50;;;;;;10502666;28;20448;-69
2021/10/28 05:28:48;;;;;;;29.40;25.40;;;12.20;46.10;;;;;;10512108;28;20927;-69
2021/10/28 05:33:51;;;;;;;30.93;26.90;;;12.20;46.00;;;;;;10510202;28;20308;-69
2021/10/28 05:38:54;;;;;;;30.67;24.43;;;12.20;45.80;;;;;;10506350;28;20232;-69
2021/10/28 05:43:59;;;;;;;32.33;24.80;;;12.20;45.90;;;;;;10513882;28;20305;-69
2021/10/28 05:49:02;;;;;;;32.63;26.10;;;12.20;46.00;;;;;;10508667;28;20224;-69
2021/10/28 05:54:07;;;;;;;33.20;26.97;;;12.20;46.00;;;;;;10509016;28;20233;-69
2021/10/28 05:59:11;;;;;;;31.67;25.60;;;12.10;45.90;;;;;;10510297;28;20901;-69
2021/10/28 06:04:14;;;;;;;36.93;28.60;;;12.10;45.90;;;;;;10513058;28;20227;-69
2021/10/28 06:09:17;;;;;;;32.60;25.53;;;12.10;45.60;;;;;;10515985;28;20245;-69
2021/10/28 06:14:25;;;;;;;36.13;29.47;;;12.10;45.60;;;;;;10516444;28;20234;-69
2021/10/28 06:19:28;;;;;;;36.40;28.27;;;12.00;45.90;;;;;;10517475;28;20228;-69
2021/10/28 06:24:32;;;;;;;40.00;31.27;;;12.00;45.60;;;;;;10508453;28;20231;-69
2021/10/28 06:29:36;;;;;;;36.17;27.23;;;12.00;45.60;;;;;;10511714;28;20223;-69
2021/10/28 06:34:43;;;;;;;27.90;22.43;;;11.90;45.90;;;;;;10511229;28;20714;-69
2021/10/28 06:39:46;;;;;;;35.93;28.17;;;11.90;45.90;;;;;;10513441;28;20216;-69
2021/10/28 06:44:51;;;;;;;35.97;28.03;;;11.90;45.90;;;;;;10516877;28;20231;-69
2021/10/28 06:49:55;;;;;;;35.70;28.40;;;11.90;45.90;;;;;;10519991;28;20223;-69
2021/10/28 06:55:05;;;;;;;36.97;28.53;;;11.80;45.90;;;;;;10520404;28;20220;-69
2021/10/28 07:05:32;;;;;;;30.17;24.40;;;11.70;46.10;;;;;;10508803;28;20230;-69
2021/10/28 07:10:36;;;;;;;34.90;26.70;;;11.70;45.90;;;;;;10513734;28;20228;-69
2021/10/28 07:15:43;;;;;;;30.93;24.40;;;11.60;45.80;;;;;;10517808;28;20299;-69
2021/10/28 07:26:30;;;;;;;29.07;24.17;;;11.50;45.80;;;;;;10512081;28;20318;-69
2021/10/28 08:14:54;;;;;;;19.77;17.40;;;11.10;46.80;;;;;;10479047;28;20252;-69
2021/10/28 08:20:04;;;;;;;21.07;17.90;;;11.20;46.90;;;;;;10501908;28;20233;-69
2021/10/28 08:30:30;;;;;;;19.67;17.57;;;11.30;46.80;;;;;;10495486;28;20235;-69
2021/10/28 08:35:36;;;;;;;19.40;17.37;;;11.30;46.60;;;;;;10495185;28;20730;-69
2021/10/28 08:40:39;;;;;;;20.43;18.23;;;11.40;47.00;;;;;;10496710;28;20223;-70
2021/10/28 08:45:45;;;;;;;20.70;18.50;;;11.40;46.90;;;;;;10500288;28;21118;-69
2021/10/28 08:50:54;;;;;;;20.60;17.77;;;11.40;46.90;;;;;;10498495;28;20220;-69
2021/10/28 08:55:59;;;;;;;17.77;15.87;;;11.50;46.80;;;;;;10500870;28;20219;-69
2021/10/28 09:28:26;;;;;;;19.47;17.43;;;11.60;46.70;;;;;;10505651;28;20296;-69
2021/10/28 09:33:41;;;;;;;18.40;16.50;;;11.60;47.20;;;;;;10504961;28;20231;-69
2021/10/28 09:44:10;;;;;;;17.67;15.87;;;11.70;46.90;;;;;;10515900;28;20220;-69
2021/10/28 09:54:48;;;;;;;16.87;15.27;;;11.70;46.50;;;;;;10521699;28;20703;-69
2021/10/28 10:00:04;;;;;;;33.07;29.87;;;11.70;46.70;;;;;;10514808;28;20231;-68
2021/10/28 10:05:11;;;;;;;22.43;20.23;;;11.70;46.30;;;;;;10524197;28;20216;-68
2021/10/28 10:10:16;;;;;;;18.33;16.60;;;11.70;46.50;;;;;;10513812;28;20235;-68
2021/10/28 10:15:20;;;;;;;21.93;20.03;;;11.70;46.50;;;;;;10515237;28;20846;-67
2021/10/28 10:20:32;;;;;;;18.20;16.40;;;11.70;46.60;;;;;;10517682;28;20227;-68
2021/10/28 10:25:47;;;;;;;20.00;18.20;;;11.70;46.60;;;;;;10515254;28;20220;-67
2021/10/28 11:26:21;;;;;;;17.47;15.77;;;11.90;46.50;;;;;;10501681;28;20219;-68
2021/10/28 11:32:09;;;;;;;18.03;16.23;;;11.90;46.30;;;;;;10516316;28;20385;-68
2021/10/28 12:48:14;;;;;;;17.13;15.43;;;12.70;46.10;;;;;;10505963;28;20216;-69
2021/10/28 12:53:48;;;;;;;14.77;13.27;;;12.80;45.80;;;;;;10508336;28;20231;-69
2021/10/28 13:04:24;;;;;;;17.27;15.50;;;12.90;45.90;;;;;;10500991;28;20255;-68
2021/10/28 15:02:57;;;;;;;19.90;17.90;;;14.20;44.60;;;;;;10406963;28;20243;-65
2021/10/28 15:29:30;;;;;;;23.50;20.33;;;14.30;44.20;;;;;;10408913;28;20229;-65
2021/10/28 15:34:55;;;;;;;21.23;19.13;;;14.30;43.70;;;;;;10354198;28;20238;-65
2021/10/28 15:40:06;;;;;;;21.07;18.87;;;14.30;43.70;;;;;;10344536;28;20740;-65
2021/10/28 15:51:06;;;;;;;20.73;18.63;;;14.30;43.70;;;;;;10341333;28;20233;-65
2021/10/28 16:21:46;;;;;;;20.80;18.70;;;14.20;43.60;;;;;;10339280;28;20230;-65
2021/10/28 16:23:23;;;;;;;20.70;18.63;;;13.80;43.30;;;;;;10355784;28;20225;-65
2021/10/28 16:28:28;;;;;;;23.97;21.43;;;13.70;43.50;;;;;;10383426;28;20230;-65
2021/10/28 16:33:33;;;;;;;22.40;20.00;;;13.70;43.20;;;;;;10384438;28;20233;-65
2021/10/28 16:38:36;;;;;;;19.43;17.43;;;13.60;43.10;;;;;;10380694;28;20287;-65
2021/10/28 16:43:40;;;;;;;20.90;18.77;;;13.60;43.50;;;;;;10378485;28;20741;-65
2021/10/28 16:48:44;;;;;;;20.10;18.07;;;13.50;43.00;;;;;;10379426;28;20225;-65
2021/10/28 16:53:47;;;;;;;19.50;17.60;;;13.40;42.90;;;;;;10381925;28;20252;-65
2021/10/28 16:58:51;;;;;;;19.83;17.93;;;13.30;42.80;;;;;;10381381;28;20222;-65
2021/10/28 17:03:56;;;;;;;21.23;19.13;;;13.20;42.80;;;;;;10379825;28;20705;-65
2021/10/28 17:09:02;;;;;;;19.77;17.77;;;13.10;42.80;;;;;;10369653;28;20244;-65
2021/10/28 17:14:06;;;;;;;21.53;19.33;;;13.00;43.90;;;;;;10378126;28;20237;-65
2021/10/28 17:19:11;;;;;;;20.33;18.40;;;13.00;42.90;;;;;;10377730;28;20225;-65
2021/10/28 17:24:32;;;;;;;21.13;19.13;;;13.00;42.80;;;;;;10369539;28;20277;-65
2021/10/28 17:29:35;;;;;;;17.83;16.23;;;12.70;42.90;;;;;;10362532;28;20232;-65
2021/10/28 17:34:39;;;;;;;19.10;16.53;;;12.70;42.70;;;;;;10376137;28;20915;-65
2021/10/28 17:39:43;;;;;;;18.47;16.57;;;12.50;42.60;;;;;;10371947;28;20230;-65
2021/10/28 17:44:51;;;;;;;18.63;16.93;;;12.30;42.80;;;;;;10375612;28;20238;-65
2021/10/28 17:49:56;;;;;;;20.10;18.07;;;12.20;43.10;;;;;;10373797;28;20225;-65
2021/10/28 17:55:11;;;;;;;19.17;17.37;;;12.10;43.30;;;;;;10380805;28;20256;-65
2021/10/28 18:00:16;;;;;;;19.83;17.87;;;12.00;43.30;;;;;;10378247;28;20230;-65
2021/10/28 18:05:21;;;;;;;17.50;15.90;;;12.00;43.60;;;;;;10376448;28;20222;-65
2021/10/28 18:10:24;;;;;;;18.83;17.03;;;11.90;43.70;;;;;;10377592;28;20702;-65
2021/10/28 18:15:30;;;;;;;18.67;16.77;;;11.90;43.80;;;;;;10378842;28;20226;-65
2021/10/28 18:20:36;;;;;;;19.27;16.87;;;11.90;43.90;;;;;;10375054;28;20245;-66
2021/10/28 18:25:53;;;;;;;20.17;18.03;;;11.90;44.00;;;;;;10372360;28;20240;-66
2021/10/28 18:30:56;;;;;;;17.93;16.23;;;11.90;44.00;;;;;;10368247;28;20214;-65
2021/10/28 18:36:02;;;;;;;18.07;16.37;;;12.00;44.00;;;;;;10374580;28;20284;-65
2021/10/28 18:41:07;;;;;;;16.10;14.50;;;11.90;44.00;;;;;;10374542;28;20769;-65
2021/10/28 18:46:11;;;;;;;18.07;16.37;;;11.90;44.00;;;;;;10373535;28;20299;-66
2021/10/28 18:51:16;;;;;;;17.40;15.80;;;11.90;44.00;;;;;;10373588;28;20224;-66
2021/10/28 18:56:20;;;;;;;20.63;18.53;;;11.90;44.00;;;;;;10370423;28;20349;-66
2021/10/28 19:01:25;;;;;;;17.20;15.53;;;11.90;44.00;;;;;;10371251;28;21135;-66
2021/10/28 19:06:30;;;;;;;19.80;17.87;;;11.90;43.90;;;;;;10365025;28;20859;-66
2021/10/28 19:11:34;;;;;;;17.90;16.20;;;11.90;44.10;;;;;;10342695;28;20237;-65
2021/10/28 19:16:37;;;;;;;15.80;14.40;;;11.80;44.10;;;;;;10340985;28;20238;-66
2021/10/28 19:21:43;;;;;;;14.43;13.13;;;11.80;44.00;;;;;;10344089;28;20237;-66
2021/10/28 19:26:47;;;;;;;16.43;15.00;;;11.90;44.20;;;;;;10341099;28;20225;-66
2021/10/28 19:31:54;;;;;;;16.70;15.13;;;11.80;43.90;;;;;;10368367;28;20218;-66
2021/10/28 19:37:05;;;;;;;17.17;15.57;;;11.80;43.70;;;;;;10382173;28;20288;-66
2021/10/28 19:42:33;;;;;;;14.80;13.40;;;11.80;43.90;;;;;;10365295;28;20918;-66
2021/10/28 19:47:36;;;;;;;15.93;14.57;;;11.70;43.90;;;;;;10379745;28;20233;-65
2021/10/28 19:52:42;;;;;;;17.40;15.83;;;11.60;44.00;;;;;;10383974;28;20229;-67
2021/10/28 19:57:50;;;;;;;17.00;15.40;;;11.60;44.10;;;;;;10381759;28;20733;-66
2021/10/28 20:24:37;;;;;;;16.93;15.43;;;11.60;44.10;;;;;;10464693;28;20230;-65
2021/10/28 20:29:40;;;;;;;17.50;15.87;;;11.60;44.30;;;;;;10455059;28;20238;-65
2021/10/28 20:34:52;;;;;;;16.37;14.87;;;11.60;44.30;;;;;;10464503;28;20238;-65
2021/10/28 20:39:57;;;;;;;18.07;16.03;;;11.60;44.30;;;;;;10453413;28;20318;-65
2021/10/28 20:45:00;;;;;;;17.27;15.57;;;11.60;44.10;;;;;;10461635;28;20225;-66
2021/10/28 20:50:04;;;;;;;15.07;13.63;;;11.60;43.90;;;;;;10462531;28;20239;-65
2021/10/28 20:55:10;;;;;;;16.53;15.03;;;11.50;44.10;;;;;;10421685;28;20229;-65
2021/10/28 21:00:16;;;;;;;17.17;15.47;;;11.50;44.30;;;;;;10414133;28;20233;-65
2021/10/28 21:05:22;;;;;;;16.47;14.97;;;11.50;44.20;;;;;;10414998;28;20332;-65
2021/10/28 21:10:28;;;;;;;15.63;14.23;;;11.50;44.10;;;;;;10420717;28;20237;-65
2021/10/28 21:15:32;;;;;;;15.33;13.93;;;11.50;44.10;;;;;;10414304;28;20313;-65
2021/10/28 21:20:36;;;;;;;16.37;14.63;;;11.50;44.10;;;;;;10390374;28;23145;-65
2021/10/28 21:25:40;;;;;;;13.23;12.03;;;11.50;44.00;;;;;;10391702;28;20230;-65
2021/10/28 21:30:45;;;;;;;17.30;14.70;;;11.50;44.10;;;;;;10386317;28;20568;-65
2021/10/28 21:35:49;;;;;;;17.10;13.63;;;11.50;44.10;;;;;;10392002;28;20252;-65
2021/10/28 21:40:54;;;;;;;15.97;13.63;;;11.40;43.80;;;;;;10389274;28;20325;-65
2021/10/28 21:45:58;;;;;;;14.13;12.87;;;11.40;43.80;;;;;;10389553;28;20314;-65
2021/10/28 21:51:03;;;;;;;14.93;13.53;;;11.40;43.90;;;;;;10396301;28;20259;-65
2021/10/28 21:56:14;;;;;;;15.17;13.87;;;11.30;44.00;;;;;;10430718;28;20376;-65
2021/10/28 22:01:23;;;;;;;13.53;12.33;;;11.30;44.10;;;;;;10426566;28;20660;-66
2021/10/28 22:28:03;;;;;;;13.03;11.93;;;11.10;43.90;;;;;;10428285;28;21054;-65
2021/10/28 22:33:06;;;;;;;13.63;12.33;;;11.10;44.10;;;;;;10420121;28;20649;-65
2021/10/28 22:38:11;;;;;;;12.83;11.70;;;11.10;43.90;;;;;;10427133;28;20228;-65
2021/10/28 22:43:18;;;;;;;13.70;12.50;;;11.00;44.00;;;;;;10427344;28;20312;-65
2021/10/28 22:48:21;;;;;;;26.70;11.67;;;11.00;44.10;;;;;;10428870;28;20599;-65
2021/10/28 22:53:24;;;;;;;11.00;10.10;;;10.90;43.80;;;;;;10433020;28;20313;-65
2021/10/28 22:58:31;;;;;;;12.00;11.00;;;10.90;43.80;;;;;;10430397;28;20229;-65
2021/10/28 23:03:52;;;;;;;14.40;12.17;;;10.90;44.10;;;;;;10425101;28;20257;-65
2021/10/28 23:10:04;;;;;;;11.80;10.80;;;10.80;43.90;;;;;;10424832;28;20239;-65
2021/10/28 23:14:43;;;;;;;10.93;10.03;;;10.80;44.00;;;;;;10427705;28;20301;-65
2021/10/28 23:25:07;;;;;;;14.53;10.93;;;10.70;43.90;;;;;;10387221;28;20704;-65
2021/10/28 23:30:12;;;;;;;14.40;10.00;;;10.70;43.90;;;;;;10395477;28;20233;-65
2021/10/28 23:35:16;;;;;;;12.20;11.20;;;10.70;43.80;;;;;;10399907;28;20236;-65
2021/10/28 23:40:19;;;;;;;12.33;11.33;;;10.60;44.00;;;;;;10397846;28;20237;-65
2021/10/28 23:45:24;;;;;;;10.13;9.33;;;10.60;44.20;;;;;;10394729;28;20730;-65
2021/10/28 23:50:27;;;;;;;9.80;8.83;;;10.60;44.40;;;;;;10394235;28;20238;-65
2021/10/28 23:55:31;;;;;;;11.10;10.20;;;10.60;44.40;;;;;;10394802;28;20236;-65
